Antonia, Louisiana
Current Conditions -  °F | °C
As of 11:53 PM on Wednesday 26 Nov 2014 (Local Time) from KESF Reporting Station
Clear Clear  
Wind Chill:   Ceiling: Unl
Heat Index:   Visibility: 10mi
Dew Point:   Wind: 3mph
Humidity: 74%   Direction: NA
Pressure: 30.31"   Gusts: NA
Location:  31.538°N, 92.3799°W
Report Text: KESF 270553Z AUTO VRB03KT 10SM CLR 07/03 A3031 RMK AO2 SLP261 T00720028 10128 20056 402170000 51021
Loading
Personal Weather Stations






























Interactive Weather Map New forecast layout! Learn more

10-Day Weather Forecast

Advertisements
Track Severe Weather on mobile